Time,TemperatureF,DewpointF,PressureIn,WindDirection,WindDirectionDegrees,WindSpeedMPH,WindSpeedGustMPH,Humidity,HourlyPrecipIn,Conditions,Clouds,dailyrainin,SoftwareType,DateUTC
2013-09-09 00:00:00,62.5,59.5,30.03,SSE,158,0.0,0.0,90,0.00,,,0.00,Wunderground v.1.13,2013-09-09 04:00:00,
2013-09-09 00:05:00,62.5,59.5,30.03,SSE,157,0.0,0.0,90,0.00,,,0.00,Wunderground v.1.13,2013-09-09 04:05:00,
2013-09-09 00:10:00,62.5,59.5,30.03,SSE,158,0.0,0.0,90,0.00,,,0.00,Wunderground v.1.13,2013-09-09 04:10:00,
2013-09-09 00:15:00,62.4,59.7,30.03,SSE,158,0.0,0.0,91,0.00,,,0.00,Wunderground v.1.13,2013-09-09 04:15:00,
2013-09-09 00:20:00,62.3,59.6,30.03,SSE,157,0.0,0.0,91,0.00,,,0.00,Wunderground v.1.13,2013-09-09 04:20:00,
2013-09-09 00:30:00,62.1,59.4,30.03,SSE,157,0.0,0.0,91,0.00,,,0.00,Wunderground v.1.13,2013-09-09 04:30:00,
2013-09-09 00:40:00,62.0,59.3,30.04,SSE,158,0.0,0.0,91,0.00,,,0.00,Wunderground v.1.13,2013-09-09 04:40:00,
2013-09-09 00:45:00,61.9,59.2,30.03,SSE,158,0.0,0.0,91,0.00,,,0.00,Wunderground v.1.13,2013-09-09 04:45:00,
2013-09-09 00:50:00,61.8,59.1,30.03,SSE,158,0.0,0.0,91,0.00,,,0.00,Wunderground v.1.13,2013-09-09 04:50:00,
2013-09-09 01:00:00,61.5,58.8,30.04,SSE,158,0.0,0.0,91,0.00,,,0.00,Wunderground v.1.13,2013-09-09 05:00:00,
2013-09-09 01:05:00,61.3,58.7,30.03,SSE,158,0.0,0.0,91,0.00,,,0.00,Wunderground v.1.13,2013-09-09 05:05:00,
2013-09-09 01:15:00,61.1,58.5,30.03,SSE,158,0.0,0.0,91,0.00,,,0.00,Wunderground v.1.13,2013-09-09 05:15:00,
2013-09-09 01:20:00,60.9,58.3,30.03,SSE,158,0.0,0.0,91,0.00,,,0.00,Wunderground v.1.13,2013-09-09 05:20:00,
2013-09-09 01:25:00,60.9,58.6,30.03,SSE,157,0.0,0.0,92,0.00,,,0.00,Wunderground v.1.13,2013-09-09 05:25:00,
2013-09-09 01:30:00,60.8,58.5,30.03,SSE,158,0.0,0.0,92,0.00,,,0.00,Wunderground v.1.13,2013-09-09 05:30:00,
2013-09-09 01:40:00,60.6,58.3,30.03,SSE,158,0.0,0.0,92,0.00,,,0.00,Wunderground v.1.13,2013-09-09 05:40:00,
2013-09-09 01:45:00,60.5,58.2,30.03,SSE,157,0.0,0.0,92,0.00,,,0.00,Wunderground v.1.13,2013-09-09 05:45:00,
2013-09-09 01:55:00,60.2,57.9,30.03,SSE,158,0.0,0.0,92,0.00,,,0.00,Wunderground v.1.13,2013-09-09 05:55:00,
2013-09-09 02:05:00,59.9,57.3,30.03,SSE,158,0.0,0.0,91,0.00,,,0.00,Wunderground v.1.13,2013-09-09 06:05:00,
2013-09-09 02:15:00,59.8,57.5,30.03,SSE,157,0.0,0.0,92,0.00,,,0.00,Wunderground v.1.13,2013-09-09 06:15:00,
2013-09-09 02:20:00,59.7,57.4,30.03,SSE,157,0.0,0.0,92,0.00,,,0.00,Wunderground v.1.13,2013-09-09 06:20:00,
2013-09-09 02:25:00,59.6,57.3,30.03,SSE,158,0.0,0.0,92,0.00,,,0.00,Wunderground v.1.13,2013-09-09 06:25:00,
2013-09-09 02:35:00,59.5,57.2,30.03,SSE,157,0.0,0.0,92,0.00,,,0.00,Wunderground v.1.13,2013-09-09 06:35:00,
2013-09-09 02:45:00,59.3,57.0,30.03,SSE,158,0.0,0.0,92,0.00,,,0.00,Wunderground v.1.13,2013-09-09 06:45:00,
2013-09-09 02:50:00,59.2,56.9,30.03,SSE,158,0.0,0.0,92,0.00,,,0.00,Wunderground v.1.13,2013-09-09 06:50:00,
2013-09-09 03:00:00,59.1,56.8,30.03,SSE,157,0.0,0.0,92,0.00,,,0.00,Wunderground v.1.13,2013-09-09 07:00:00,
2013-09-09 03:05:00,59.0,57.0,30.03,SSE,158,0.0,1.0,93,0.00,,,0.00,Wunderground v.1.13,2013-09-09 07:05:00,
2013-09-09 03:15:00,59.0,57.0,30.03,SSE,157,0.0,1.0,93,0.00,,,0.00,Wunderground v.1.13,2013-09-09 07:15:00,
2013-09-09 03:25:00,59.0,57.0,30.03,SSE,158,0.0,1.0,93,0.00,,,0.00,Wunderground v.1.13,2013-09-09 07:25:00,
2013-09-09 03:35:00,58.7,56.7,30.03,SSE,158,0.0,1.0,93,0.00,,,0.00,Wunderground v.1.13,2013-09-09 07:35:00,
2013-09-09 03:40:00,58.6,56.6,30.03,SSE,158,0.0,1.0,93,0.00,,,0.00,Wunderground v.1.13,2013-09-09 07:40:00,
2013-09-09 03:50:00,58.5,56.5,30.03,SSE,157,0.0,1.0,93,0.00,,,0.00,Wunderground v.1.13,2013-09-09 07:50:00,
2013-09-09 04:00:00,58.4,56.4,30.04,SSE,158,0.0,1.0,93,0.00,,,0.00,Wunderground v.1.13,2013-09-09 08:00:00,
2013-09-09 04:05:00,58.3,56.3,30.04,SSE,158,0.0,0.0,93,0.00,,,0.00,Wunderground v.1.13,2013-09-09 08:05:00,
2013-09-09 04:15:00,58.3,56.3,30.04,SSE,157,0.0,0.0,93,0.00,,,0.00,Wunderground v.1.13,2013-09-09 08:15:00,
2013-09-09 04:20:00,58.3,56.3,30.04,SSE,157,0.0,0.0,93,0.00,,,0.00,Wunderground v.1.13,2013-09-09 08:20:00,
2013-09-09 04:30:00,58.2,56.2,30.05,SSE,157,0.0,0.0,93,0.00,,,0.00,Wunderground v.1.13,2013-09-09 08:30:00,
2013-09-09 04:35:00,58.2,56.2,30.05,SSE,157,0.0,0.0,93,0.00,,,0.00,Wunderground v.1.13,2013-09-09 08:35:00,
2013-09-09 04:40:00,58.2,56.2,30.05,SSE,158,0.0,0.0,93,0.00,,,0.00,Wunderground v.1.13,2013-09-09 08:40:00,
2013-09-09 04:50:00,58.1,56.1,30.05,SSE,157,0.0,0.0,93,0.00,,,0.00,Wunderground v.1.13,2013-09-09 08:50:00,
2013-09-09 05:00:00,58.0,56.0,30.05,SSE,158,0.0,0.0,93,0.00,,,0.00,Wunderground v.1.13,2013-09-09 09:00:00,
2013-09-09 05:05:00,58.0,56.0,30.05,SSE,158,0.0,0.0,93,0.00,,,0.00,Wunderground v.1.13,2013-09-09 09:05:00,
2013-09-09 05:15:00,57.9,55.9,30.06,SSE,158,0.0,0.0,93,0.00,,,0.00,Wunderground v.1.13,2013-09-09 09:15:00,
2013-09-09 05:20:00,57.8,55.8,30.05,SSE,157,0.0,0.0,93,0.00,,,0.00,Wunderground v.1.13,2013-09-09 09:20:00,
2013-09-09 05:25:00,57.8,55.8,30.06,SSE,158,0.0,0.0,93,0.00,,,0.00,Wunderground v.1.13,2013-09-09 09:25:00,
2013-09-09 05:35:00,57.8,55.8,30.06,SSE,158,0.0,0.0,93,0.00,,,0.00,Wunderground v.1.13,2013-09-09 09:35:00,
2013-09-09 05:45:00,57.7,55.7,30.06,SSE,157,0.0,0.0,93,0.00,,,0.00,Wunderground v.1.13,2013-09-09 09:45:00,
2013-09-09 05:55:00,57.7,55.7,30.06,SSE,157,0.0,0.0,93,0.00,,,0.00,Wunderground v.1.13,2013-09-09 09:55:00,
2013-09-09 06:05:00,57.6,55.6,30.06,SSE,158,0.0,0.0,93,0.00,,,0.00,Wunderground v.1.13,2013-09-09 10:05:00,
2013-09-09 06:15:00,57.6,55.6,30.06,SSE,157,0.0,0.0,93,0.00,,,0.00,Wunderground v.1.13,2013-09-09 10:15:00,
2013-09-09 06:20:00,57.6,55.6,30.06,SSE,158,0.0,0.0,93,0.00,,,0.00,Wunderground v.1.13,2013-09-09 10:20:00,
2013-09-09 06:25:00,57.6,55.6,30.06,SSE,158,0.0,0.0,93,0.00,,,0.00,Wunderground v.1.13,2013-09-09 10:25:00,
2013-09-09 06:35:00,57.5,55.5,30.06,SSE,158,0.0,0.0,93,0.00,,,0.00,Wunderground v.1.13,2013-09-09 10:35:00,
2013-09-09 06:40:00,57.5,55.5,30.06,SSE,157,0.0,0.0,93,0.00,,,0.00,Wunderground v.1.13,2013-09-09 10:40:00,
2013-09-09 06:50:00,57.5,55.5,30.06,SSE,158,0.0,0.0,93,0.00,,,0.00,Wunderground v.1.13,2013-09-09 10:50:00,
2013-09-09 06:55:00,57.5,55.5,30.06,SSE,158,0.0,0.0,93,0.00,,,0.00,Wunderground v.1.13,2013-09-09 10:55:00,
2013-09-09 07:05:00,57.6,55.9,30.06,SSE,157,0.0,0.0,94,0.00,,,0.00,Wunderground v.1.13,2013-09-09 11:05:00,
2013-09-09 07:15:00,57.7,56.0,30.07,SSE,158,0.0,0.0,94,0.00,,,0.00,Wunderground v.1.13,2013-09-09 11:15:00,
2013-09-09 07:20:00,57.7,56.0,30.07,SSE,158,0.0,0.0,94,0.00,,,0.00,Wunderground v.1.13,2013-09-09 11:20:00,
2013-09-09 07:25:00,57.7,56.0,30.07,SSE,158,0.0,0.0,94,0.00,,,0.00,Wunderground v.1.13,2013-09-09 11:25:00,
2013-09-09 07:35:00,57.8,56.1,30.07,SSE,158,0.0,0.0,94,0.00,,,0.00,Wunderground v.1.13,2013-09-09 11:35:00,
2013-09-09 07:45:00,58.0,56.3,30.07,SSE,158,0.0,0.0,94,0.00,,,0.00,Wunderground v.1.13,2013-09-09 11:45:00,
2013-09-09 07:55:00,58.2,56.5,30.07,SSE,158,0.0,0.0,94,0.00,,,0.00,Wunderground v.1.13,2013-09-09 11:55:00,
2013-09-09 08:00:00,58.4,56.7,30.07,SSE,157,0.0,0.0,94,0.00,,,0.00,Wunderground v.1.13,2013-09-09 12:00:00,
2013-09-09 08:05:00,58.5,56.8,30.07,SSE,157,0.0,0.0,94,0.00,,,0.00,Wunderground v.1.13,2013-09-09 12:05:00,
2013-09-09 08:15:00,58.8,57.1,30.07,SSE,157,0.0,0.0,94,0.00,,,0.00,Wunderground v.1.13,2013-09-09 12:15:00,
2013-09-09 08:20:00,59.0,57.3,30.07,SSE,158,0.0,0.0,94,0.00,,,0.00,Wunderground v.1.13,2013-09-09 12:20:00,
2013-09-09 08:30:00,59.1,57.4,30.07,SSE,158,0.0,0.0,94,0.00,,,0.00,Wunderground v.1.13,2013-09-09 12:30:00,
2013-09-09 08:35:00,59.4,57.7,30.07,SSE,158,0.0,0.0,94,0.00,,,0.00,Wunderground v.1.13,2013-09-09 12:35:00,
2013-09-09 08:45:00,59.8,58.1,30.08,SSE,158,0.0,0.0,94,0.00,,,0.00,Wunderground v.1.13,2013-09-09 12:45:00,
2013-09-09 08:50:00,60.0,58.3,30.08,SSE,157,0.0,0.0,94,0.00,,,0.00,Wunderground v.1.13,2013-09-09 12:50:00,
2013-09-09 09:00:00,60.7,59.0,30.07,SSE,158,0.0,0.0,94,0.00,,,0.00,Wunderground v.1.13,2013-09-09 13:00:00,
2013-09-09 09:05:00,61.3,59.9,30.07,SSE,158,0.0,1.0,95,0.00,,,0.00,Wunderground v.1.13,2013-09-09 13:05:00,
2013-09-09 09:15:00,62.2,60.8,30.07,SSE,158,0.0,1.0,95,0.00,,,0.00,Wunderground v.1.13,2013-09-09 13:15:00,
2013-09-09 09:20:00,62.3,60.6,30.07,SSE,158,0.0,1.0,94,0.00,,,0.00,Wunderground v.1.13,2013-09-09 13:20:00,
2013-09-09 09:30:00,62.9,60.8,30.07,SSE,157,0.0,1.0,93,0.00,,,0.00,Wunderground v.1.13,2013-09-09 13:30:00,
2013-09-09 09:35:00,63.9,61.8,30.08,SSE,158,0.0,1.0,93,0.00,,,0.00,Wunderground v.1.13,2013-09-09 13:35:00,
2013-09-09 09:40:00,65.0,62.6,30.08,SSE,158,0.0,1.0,92,0.00,,,0.00,Wunderground v.1.13,2013-09-09 13:40:00,
2013-09-09 09:50:00,65.9,62.9,30.07,SSE,158,0.0,1.0,90,0.00,,,0.00,Wunderground v.1.13,2013-09-09 13:50:00,
2013-09-09 10:00:00,66.6,62.9,30.07,SSE,158,0.0,1.0,88,0.00,,,0.00,Wunderground v.1.13,2013-09-09 14:00:00,
2013-09-09 10:05:00,67.0,63.6,30.07,SSE,158,0.0,1.0,89,0.00,,,0.00,Wunderground v.1.13,2013-09-09 14:05:00,
2013-09-09 10:15:00,67.4,63.7,30.08,SSE,158,0.0,1.0,88,0.00,,,0.00,Wunderground v.1.13,2013-09-09 14:15:00,
2013-09-09 10:20:00,67.9,63.9,30.08,SSE,158,0.0,1.0,87,0.00,,,0.00,Wunderground v.1.13,2013-09-09 14:20:00,
2013-09-09 10:25:00,69.0,64.3,30.08,SSE,157,0.0,1.0,85,0.00,,,0.00,Wunderground v.1.13,2013-09-09 14:25:00,
2013-09-09 10:30:00,70.2,65.1,30.08,SSE,158,0.0,1.0,84,0.00,,,0.00,Wunderground v.1.13,2013-09-09 14:30:00,
2013-09-09 10:40:00,71.2,65.1,30.08,SSE,150,0.0,1.0,81,0.00,,,0.00,Wunderground v.1.13,2013-09-09 14:40:00,
2013-09-09 10:50:00,71.4,64.9,30.08,East,96,1.0,5.0,80,0.00,,,0.00,Wunderground v.1.13,2013-09-09 14:50:00,
2013-09-09 10:55:00,71.6,64.7,30.08,SE,146,2.0,2.0,79,0.00,,,0.00,Wunderground v.1.13,2013-09-09 14:55:00,
2013-09-09 11:00:00,71.4,64.5,30.08,SSE,159,2.0,2.0,79,0.00,,,0.00,Wunderground v.1.13,2013-09-09 15:00:00,
2013-09-09 11:05:00,71.9,65.0,30.07,South,173,2.0,8.0,79,0.00,,,0.00,Wunderground v.1.13,2013-09-09 15:05:00,
2013-09-09 11:15:00,72.9,65.6,30.07,SE,130,1.0,8.0,78,0.00,,,0.00,Wunderground v.1.13,2013-09-09 15:15:00,
2013-09-09 11:25:00,73.6,67.0,30.07,SE,134,1.0,8.0,80,0.00,,,0.00,Wunderground v.1.13,2013-09-09 15:25:00,
2013-09-09 11:30:00,73.8,66.5,30.07,SSE,164,1.0,1.0,78,0.00,,,0.00,Wunderground v.1.13,2013-09-09 15:30:00,
2013-09-09 11:35:00,73.9,67.3,30.07,SE,141,1.0,8.0,80,0.00,,,0.00,Wunderground v.1.13,2013-09-09 15:35:00,
2013-09-09 11:45:00,74.6,68.4,30.07,SE,138,0.0,8.0,81,0.00,,,0.00,Wunderground v.1.13,2013-09-09 15:45:00,
2013-09-09 11:50:00,75.1,67.8,30.07,SE,137,0.0,8.0,78,0.00,,,0.00,Wunderground v.1.13,2013-09-09 15:50:00,
2013-09-09 11:55:00,75.5,68.5,30.07,SE,137,0.0,8.0,79,0.00,,,0.00,Wunderground v.1.13,2013-09-09 15:55:00,
2013-09-09 12:00:00,75.9,68.5,30.07,SE,137,0.0,8.0,78,0.00,,,0.00,Wunderground v.1.13,2013-09-09 16:00:00,
2013-09-09 12:05:00,75.8,68.4,30.06,SE,137,0.0,1.0,78,0.00,,,0.00,Wunderground v.1.13,2013-09-09 16:05:00,
2013-09-09 12:15:00,76.4,69.0,30.06,SE,138,0.0,3.0,78,0.00,,,0.00,Wunderground v.1.13,2013-09-09 16:15:00,
2013-09-09 12:20:00,76.0,69.0,30.06,SE,138,0.0,1.0,79,0.00,,,0.00,Wunderground v.1.13,2013-09-09 16:20:00,
2013-09-09 12:25:00,75.6,68.6,30.06,SE,138,0.0,1.0,79,0.00,,,0.00,Wunderground v.1.13,2013-09-09 16:25:00,
2013-09-09 12:35:00,75.2,68.2,30.05,SE,138,1.0,1.0,79,0.00,,,0.00,Wunderground v.1.13,2013-09-09 16:35:00,
2013-09-09 12:45:00,74.9,67.9,30.05,SSE,159,1.0,1.0,79,0.00,,,0.00,Wunderground v.1.13,2013-09-09 16:45:00,
2013-09-09 12:50:00,75.1,68.9,30.05,SSE,161,1.0,1.0,81,0.00,,,0.00,Wunderground v.1.13,2013-09-09 16:50:00,
2013-09-09 13:00:00,75.3,69.1,30.05,SSE,160,0.0,1.0,81,0.00,,,0.00,Wunderground v.1.13,2013-09-09 17:00:00,
2013-09-09 13:05:00,75.5,69.3,30.05,WSW,250,1.0,1.0,81,0.00,,,0.00,Wunderground v.1.13,2013-09-09 17:05:00,
2013-09-09 13:15:00,75.9,68.5,30.05,SSE,168,1.0,3.0,78,0.00,,,0.00,Wunderground v.1.13,2013-09-09 17:15:00,
2013-09-09 13:20:00,76.4,69.8,30.04,SSE,165,1.0,1.0,80,0.00,,,0.00,Wunderground v.1.13,2013-09-09 17:20:00,
2013-09-09 13:25:00,76.9,69.9,30.04,SE,141,1.0,1.0,79,0.00,,,0.00,Wunderground v.1.13,2013-09-09 17:25:00,
2013-09-09 13:35:00,77.6,69.8,30.04,SE,141,1.0,3.0,77,0.00,,,0.00,Wunderground v.1.13,2013-09-09 17:35:00,
2013-09-09 13:40:00,77.9,70.1,30.04,South,171,1.0,1.0,77,0.00,,,0.00,Wunderground v.1.13,2013-09-09 17:40:00,
2013-09-09 13:45:00,78.0,70.2,30.04,SE,144,1.0,3.0,77,0.00,,,0.00,Wunderground v.1.13,2013-09-09 17:45:00,
2013-09-09 13:55:00,78.7,70.5,30.04,WNW,285,1.0,1.0,76,0.00,,,0.00,Wunderground v.1.13,2013-09-09 17:55:00,
2013-09-09 14:00:00,79.2,70.6,30.04,WNW,284,1.0,3.0,75,0.00,,,0.00,Wunderground v.1.13,2013-09-09 18:00:00,
2013-09-09 14:05:00,79.7,71.1,30.03,West,262,1.0,4.0,75,0.00,,,0.00,Wunderground v.1.13,2013-09-09 18:05:00,
2013-09-09 14:15:00,80.5,71.4,30.03,WSW,238,2.0,2.0,74,0.00,,,0.00,Wunderground v.1.13,2013-09-09 18:15:00,
2013-09-09 14:20:00,80.9,71.8,30.03,SE,144,1.0,4.0,74,0.00,,,0.00,Wunderground v.1.13,2013-09-09 18:20:00,
2013-09-09 14:25:00,80.9,71.8,30.03,SE,126,1.0,4.0,74,0.00,,,0.00,Wunderground v.1.13,2013-09-09 18:25:00,
2013-09-09 14:35:00,81.9,72.4,30.02,WSW,244,2.0,2.0,73,0.00,,,0.00,Wunderground v.1.13,2013-09-09 18:35:00,
2013-09-09 14:40:00,81.8,72.3,30.02,SSE,153,2.0,2.0,73,0.00,,,0.00,Wunderground v.1.13,2013-09-09 18:40:00,
2013-09-09 14:50:00,81.0,71.9,30.02,SSE,152,1.0,1.0,74,0.00,,,0.00,Wunderground v.1.13,2013-09-09 18:50:00,
2013-09-09 14:55:00,81.1,72.8,30.02,SSE,157,1.0,1.0,76,0.00,,,0.00,Wunderground v.1.13,2013-09-09 18:55:00,
2013-09-09 15:00:00,81.6,72.1,30.02,ENE,67,1.0,4.0,73,0.00,,,0.00,Wunderground v.1.13,2013-09-09 19:00:00,
2013-09-09 15:05:00,81.9,72.8,30.01,SSW,196,2.0,2.0,74,0.00,,,0.00,Wunderground v.1.13,2013-09-09 19:05:00,
2013-09-09 15:15:00,82.1,72.2,30.01,SE,140,2.0,6.0,72,0.00,,,0.00,Wunderground v.1.13,2013-09-09 19:15:00,
2013-09-09 15:25:00,82.3,72.4,30.01,SW,219,2.0,8.0,72,0.00,,,0.00,Wunderground v.1.13,2013-09-09 19:25:00,
2013-09-09 15:35:00,82.2,72.7,30.00,SSE,157,3.0,3.0,73,0.00,,,0.00,Wunderground v.1.13,2013-09-09 19:35:00,
2013-09-09 15:40:00,82.2,73.1,30.00,SSE,152,2.0,2.0,74,0.00,,,0.00,Wunderground v.1.13,2013-09-09 19:40:00,
2013-09-09 15:50:00,82.2,73.5,29.99,SSW,192,1.0,1.0,75,0.00,,,0.00,Wunderground v.1.13,2013-09-09 19:50:00,
2013-09-09 16:00:00,82.1,73.4,29.99,East,89,1.0,1.0,75,0.00,,,0.00,Wunderground v.1.13,2013-09-09 20:00:00,
2013-09-09 16:05:00,82.0,72.9,29.99,SSE,150,1.0,1.0,74,0.00,,,0.00,Wunderground v.1.13,2013-09-09 20:05:00,
2013-09-09 16:15:00,81.9,74.4,29.98,SE,142,0.0,1.0,78,0.00,,,0.00,Wunderground v.1.13,2013-09-09 20:15:00,
2013-09-09 16:25:00,82.2,74.3,29.98,SE,142,0.0,1.0,77,0.00,,,0.00,Wunderground v.1.13,2013-09-09 20:25:00,
2013-09-09 16:35:00,82.1,74.2,29.98,SE,142,0.0,1.0,77,0.00,,,0.00,Wunderground v.1.13,2013-09-09 20:35:00,
2013-09-09 16:40:00,81.9,74.4,29.98,SE,143,0.0,1.0,78,0.00,,,0.00,Wunderground v.1.13,2013-09-09 20:40:00,
2013-09-09 16:50:00,81.5,73.6,29.97,SE,142,0.0,1.0,77,0.00,,,0.00,Wunderground v.1.13,2013-09-09 20:50:00,
2013-09-09 16:55:00,81.5,73.6,29.97,SE,142,0.0,1.0,77,0.00,,,0.00,Wunderground v.1.13,2013-09-09 20:55:00,
2013-09-09 17:05:00,80.8,73.3,29.97,SE,143,0.0,1.0,78,0.00,,,0.00,Wunderground v.1.13,2013-09-09 21:05:00,
2013-09-09 17:15:00,80.2,73.1,29.97,SE,143,0.0,1.0,79,0.00,,,0.00,Wunderground v.1.13,2013-09-09 21:15:00,
2013-09-09 17:25:00,79.8,73.4,29.97,SE,143,0.0,1.0,81,0.00,,,0.00,Wunderground v.1.13,2013-09-09 21:25:00,
2013-09-09 17:35:00,79.2,72.9,29.97,SE,143,0.0,1.0,81,0.00,,,0.00,Wunderground v.1.13,2013-09-09 21:35:00,
2013-09-09 17:45:00,78.7,72.7,29.97,SE,143,0.0,1.0,82,0.00,,,0.00,Wunderground v.1.13,2013-09-09 21:45:00,
2013-09-09 17:50:00,78.3,72.3,29.97,SE,143,0.0,1.0,82,0.00,,,0.00,Wunderground v.1.13,2013-09-09 21:50:00,
2013-09-09 18:00:00,77.9,72.0,29.97,SE,143,0.0,1.0,82,0.00,,,0.00,Wunderground v.1.13,2013-09-09 22:00:00,
2013-09-09 18:05:00,77.8,72.2,29.97,SE,143,0.0,0.0,83,0.00,,,0.00,Wunderground v.1.13,2013-09-09 22:05:00,
2013-09-09 18:15:00,77.3,72.1,29.99,ESE,115,2.0,4.0,84,0.00,,,0.00,Wunderground v.1.13,2013-09-09 22:15:00,
2013-09-09 18:20:00,76.0,71.5,29.98,East,84,4.0,4.0,86,0.00,,,0.00,Wunderground v.1.13,2013-09-09 22:20:00,
2013-09-09 18:30:00,74.2,70.1,29.99,SE,140,2.0,2.0,87,0.00,,,0.00,Wunderground v.1.13,2013-09-09 22:30:00,
2013-09-09 18:40:00,72.0,68.2,29.99,SW,217,3.0,3.0,88,0.00,,,0.00,Wunderground v.1.13,2013-09-09 22:40:00,
2013-09-09 18:45:00,71.7,68.0,30.00,West,259,3.0,3.0,88,0.00,,,0.00,Wunderground v.1.13,2013-09-09 22:45:00,
2013-09-09 18:55:00,71.7,68.6,29.99,SSE,163,1.0,1.0,90,0.00,,,0.00,Wunderground v.1.13,2013-09-09 22:55:00,
2013-09-09 19:00:00,71.2,68.4,30.00,West,261,1.0,3.0,91,0.00,,,0.00,Wunderground v.1.13,2013-09-09 23:00:00,
2013-09-09 19:05:00,70.8,68.4,30.00,NW,315,2.0,6.0,92,0.00,,,0.00,Wunderground v.1.13,2013-09-09 23:05:00,
2013-09-09 19:15:00,70.7,68.6,30.00,NW,315,0.0,6.0,93,0.00,,,0.00,Wunderground v.1.13,2013-09-09 23:15:00,
2013-09-09 19:25:00,70.8,68.7,30.00,NW,315,0.0,6.0,93,0.00,,,0.00,Wunderground v.1.13,2013-09-09 23:25:00,
2013-09-09 19:30:00,70.8,68.7,30.00,NW,315,0.0,6.0,93,0.00,,,0.00,Wunderground v.1.13,2013-09-09 23:30:00,
2013-09-09 19:40:00,70.7,68.6,30.00,NW,315,0.0,6.0,93,0.00,,,0.00,Wunderground v.1.13,2013-09-09 23:40:00,
2013-09-09 19:50:00,70.8,69.0,30.01,NW,315,0.0,6.0,94,0.00,,,0.00,Wunderground v.1.13,2013-09-09 23:50:00,
2013-09-09 20:00:00,70.8,68.7,30.01,NW,315,0.0,6.0,93,0.00,,,0.00,Wunderground v.1.13,2013-09-10 00:00:00,
2013-09-09 20:06:00,70.8,68.7,30.01,NW,315,0.0,0.0,93,0.00,,,0.00,Wunderground v.1.13,2013-09-10 00:06:00,
2013-09-09 20:15:00,70.8,68.7,30.01,NW,315,0.0,0.0,93,0.00,,,0.00,Wunderground v.1.13,2013-09-10 00:15:00,
2013-09-09 20:20:00,70.8,68.7,30.02,NW,315,0.0,0.0,93,0.00,,,0.00,Wunderground v.1.13,2013-09-10 00:20:00,
2013-09-09 20:30:00,70.8,69.0,30.01,NW,315,0.0,0.0,94,0.00,,,0.00,Wunderground v.1.13,2013-09-10 00:30:00,
2013-09-09 20:40:00,70.8,69.0,30.01,NW,315,0.0,0.0,94,0.00,,,0.00,Wunderground v.1.13,2013-09-10 00:40:00,
2013-09-09 20:45:00,70.9,69.1,30.02,NW,315,0.0,0.0,94,0.00,,,0.00,Wunderground v.1.13,2013-09-10 00:45:00,
2013-09-09 20:55:00,71.1,69.3,30.02,NW,315,1.0,1.0,94,0.00,,,0.00,Wunderground v.1.13,2013-09-10 00:55:00,
2013-09-09 21:00:00,71.1,69.3,30.02,NW,315,1.0,1.0,94,0.00,,,0.00,Wunderground v.1.13,2013-09-10 01:00:00,
2013-09-09 21:05:00,71.2,69.7,30.02,NW,315,0.0,2.0,95,0.00,,,0.00,Wunderground v.1.13,2013-09-10 01:05:00,
2013-09-09 21:15:00,70.9,69.1,30.02,NW,315,0.0,2.0,94,0.00,,,0.00,Wunderground v.1.13,2013-09-10 01:15:00,
2013-09-09 21:20:00,70.8,69.0,30.02,NW,315,0.0,2.0,94,0.00,,,0.00,Wunderground v.1.13,2013-09-10 01:20:00,
2013-09-09 21:30:00,70.9,69.4,30.02,NW,315,0.0,2.0,95,0.00,,,0.00,Wunderground v.1.13,2013-09-10 01:30:00,
2013-09-09 21:35:00,70.8,69.3,30.02,NW,315,0.0,2.0,95,0.00,,,0.00,Wunderground v.1.13,2013-09-10 01:35:00,
2013-09-09 21:45:00,70.9,69.4,30.02,NW,315,0.0,2.0,95,0.00,,,0.00,Wunderground v.1.13,2013-09-10 01:45:00,
2013-09-09 21:50:00,70.9,69.4,30.03,NW,315,0.0,2.0,95,0.00,,,0.00,Wunderground v.1.13,2013-09-10 01:50:00,
2013-09-09 22:00:00,71.0,69.5,30.03,NW,315,0.0,2.0,95,0.00,,,0.00,Wunderground v.1.13,2013-09-10 02:00:00,
2013-09-09 22:05:00,71.0,69.5,30.03,NW,315,0.0,0.0,95,0.00,,,0.00,Wunderground v.1.13,2013-09-10 02:05:00,
2013-09-09 22:15:00,71.0,69.5,30.03,NW,315,0.0,0.0,95,0.00,,,0.00,Wunderground v.1.13,2013-09-10 02:15:00,
2013-09-09 22:25:00,71.0,69.5,30.02,NW,315,0.0,0.0,95,0.00,,,0.00,Wunderground v.1.13,2013-09-10 02:25:00,
2013-09-09 22:30:00,71.0,69.5,30.02,NW,315,0.0,0.0,95,0.00,,,0.00,Wunderground v.1.13,2013-09-10 02:30:00,
2013-09-09 22:40:00,70.9,69.4,30.02,NW,315,0.0,0.0,95,0.00,,,0.00,Wunderground v.1.13,2013-09-10 02:40:00,
2013-09-09 22:50:00,70.7,69.2,30.02,NW,315,0.0,0.0,95,0.00,,,0.00,Wunderground v.1.13,2013-09-10 02:50:00,
2013-09-09 22:55:00,70.6,69.1,30.02,NW,315,0.0,0.0,95,0.00,,,0.00,Wunderground v.1.13,2013-09-10 02:55:00,
2013-09-09 23:05:00,70.5,69.0,30.02,NW,315,0.0,0.0,95,0.00,,,0.00,Wunderground v.1.13,2013-09-10 03:05:00,
2013-09-09 23:15:00,70.4,68.9,30.02,NW,315,0.0,0.0,95,0.00,,,0.00,Wunderground v.1.13,2013-09-10 03:15:00,
2013-09-09 23:25:00,70.6,69.1,30.02,ENE,63,1.0,1.0,95,0.00,,,0.00,Wunderground v.1.13,2013-09-10 03:25:00,
2013-09-09 23:35:00,70.7,69.2,30.02,NE,48,1.0,1.0,95,0.00,,,0.00,Wunderground v.1.13,2013-09-10 03:35:00,
2013-09-09 23:45:00,70.7,69.2,30.02,NE,48,1.0,1.0,95,0.00,,,0.00,Wunderground v.1.13,2013-09-10 03:45:00,
2013-09-09 23:50:00,70.6,69.1,30.02,NE,49,1.0,1.0,95,0.00,,,0.00,Wunderground v.1.13,2013-09-10 03:50:00,